createdAt,value
2022-10-04T00:00:29.022Z,1.83
2022-10-04T00:03:31.399Z,2.03
2022-10-04T00:06:22.104Z,2.20
2022-10-04T00:09:15.692Z,1.95
2022-10-04T00:12:04.621Z,2.45
2022-10-04T00:14:54.232Z,1.85
2022-10-04T00:17:41.294Z,1.95
2022-10-04T00:21:02.954Z,2.15
2022-10-04T00:23:51.530Z,1.60
2022-10-04T00:27:05.355Z,2.55
2022-10-04T00:30:16.665Z,2.40
2022-10-04T00:33:05.235Z,2.33
2022-10-04T00:35:52.835Z,2.15
2022-10-04T00:38:39.664Z,1.83
2022-10-04T00:41:29.719Z,2.05
2022-10-04T00:44:20.666Z,2.40
2022-10-04T00:47:22.334Z,2.08
2022-10-04T00:50:17.021Z,2.10
2022-10-04T00:53:13.680Z,2.67
2022-10-04T00:56:04.068Z,2.03
2022-10-04T00:59:10.817Z,1.70
2022-10-04T01:02:02.337Z,2.28
2022-10-04T01:04:53.508Z,1.80
2022-10-04T01:07:44.787Z,1.90
2022-10-04T01:10:34.727Z,2.03
2022-10-04T01:13:24.325Z,2.15
2022-10-04T01:16:18.390Z,2.40
2022-10-04T01:19:27.394Z,2.25
2022-10-04T01:22:17.184Z,1.88
2022-10-04T01:25:05.934Z,2.33
2022-10-04T01:27:53.805Z,2.33
2022-10-04T01:30:40.850Z,2.15
2022-10-04T01:33:28.133Z,2.10
2022-10-04T01:36:15.622Z,2.47
2022-10-04T01:39:02.747Z,2.00
2022-10-04T01:41:55.495Z,2.15
2022-10-04T01:44:49.752Z,2.15
2022-10-04T01:47:42.001Z,2.15
2022-10-04T01:50:34.198Z,2.38
2022-10-04T01:53:24.786Z,2.10
2022-10-04T01:56:15.862Z,1.80
2022-10-04T01:59:08.360Z,1.80
2022-10-04T02:02:00.443Z,2.13
2022-10-04T02:04:53.888Z,1.73
2022-10-04T02:07:42.877Z,2.10
2022-10-04T02:10:31.219Z,2.00
2022-10-04T02:13:19.953Z,1.98
2022-10-04T02:16:12.495Z,2.20
2022-10-04T02:19:00.334Z,2.20
2022-10-04T02:21:49.052Z,2.58
2022-10-04T02:24:39.117Z,2.08
2022-10-04T02:27:31.282Z,1.80
2022-10-04T02:30:18.296Z,2.20
2022-10-04T02:33:06.507Z,2.13
2022-10-04T02:35:53.947Z,2.40
2022-10-04T02:38:45.076Z,2.13
2022-10-04T02:41:35.683Z,1.70
2022-10-04T02:44:26.656Z,1.77
2022-10-04T02:47:17.854Z,1.83
2022-10-04T02:50:17.749Z,1.60
2022-10-04T02:53:13.020Z,1.90
2022-10-04T02:56:02.495Z,1.77
2022-10-04T02:58:50.442Z,1.98
2022-10-04T03:01:44.766Z,2.03
2022-10-04T03:04:38.848Z,2.03
2022-10-04T03:07:27.997Z,1.88
2022-10-04T03:10:15.540Z,1.83
2022-10-04T03:13:02.742Z,1.67
2022-10-04T03:15:50.596Z,2.58
2022-10-04T03:18:38.454Z,2.38
2022-10-04T03:21:27.027Z,1.90
2022-10-04T03:24:19.777Z,1.63
2022-10-04T03:27:09.815Z,2.33
2022-10-04T03:29:59.520Z,2.10
2022-10-04T03:32:47.350Z,1.92
2022-10-04T03:35:38.362Z,1.90
2022-10-04T03:38:26.507Z,1.90
2022-10-04T03:41:16.524Z,2.03
2022-10-04T03:44:05.152Z,2.20
2022-10-04T03:46:52.522Z,1.53
2022-10-04T03:49:41.927Z,2.00
2022-10-04T03:52:33.949Z,1.83
2022-10-04T03:55:22.201Z,2.30
2022-10-04T03:58:12.742Z,2.10
2022-10-04T04:01:15.388Z,5.67
2022-10-04T04:04:07.952Z,4.37
2022-10-04T04:07:03.224Z,2.67
2022-10-04T04:09:54.666Z,2.57
2022-10-04T04:12:47.829Z,2.40
2022-10-04T04:15:36.555Z,2.40
2022-10-04T04:18:25.711Z,2.27
2022-10-04T04:21:18.606Z,2.53
2022-10-04T04:24:14.036Z,1.80
2022-10-04T04:27:05.173Z,2.20
2022-10-04T04:29:54.206Z,2.67
2022-10-04T04:32:46.835Z,2.50
2022-10-04T04:35:36.289Z,2.15
2022-10-04T04:38:25.402Z,2.30
2022-10-04T04:41:12.637Z,3.83
2022-10-04T04:43:59.974Z,3.00
2022-10-04T04:46:47.958Z,1.83
2022-10-04T04:49:39.789Z,2.93
2022-10-04T04:52:30.396Z,2.33
2022-10-04T04:55:20.403Z,2.17
2022-10-04T04:58:09.196Z,1.70
2022-10-04T05:01:00.130Z,2.40
2022-10-04T05:04:02.107Z,1.97
2022-10-04T05:07:01.393Z,2.00
2022-10-04T05:09:48.305Z,2.15
2022-10-04T05:12:35.353Z,4.07
2022-10-04T05:15:23.739Z,1.90
2022-10-04T05:18:22.181Z,2.30
2022-10-04T05:21:14.672Z,2.27
2022-10-04T05:24:12.065Z,1.83
2022-10-04T05:27:02.386Z,2.37
2022-10-04T05:30:00.238Z,2.20
2022-10-04T05:32:55.487Z,2.23
2022-10-04T05:35:50.244Z,1.70
2022-10-04T05:38:44.535Z,2.30
2022-10-04T05:41:41.999Z,1.90
2022-10-04T05:44:30.687Z,2.23
2022-10-04T05:47:22.797Z,1.87
2022-10-04T05:50:17.698Z,2.13
2022-10-04T05:53:20.594Z,1.90
2022-10-04T05:56:22.291Z,2.15
2022-10-04T05:59:23.190Z,2.08
2022-10-04T06:02:21.845Z,2.20
2022-10-04T06:05:15.704Z,2.20
2022-10-04T06:08:08.601Z,2.15
2022-10-04T06:11:11.478Z,2.10
2022-10-04T06:14:23.011Z,2.13
2022-10-04T06:17:39.305Z,1.73
2022-10-04T06:21:03.500Z,2.13
2022-10-04T06:24:04.891Z,1.77
2022-10-04T06:26:57.474Z,1.58
2022-10-04T06:29:49.401Z,2.05
2022-10-04T06:33:08.163Z,1.98
2022-10-04T06:36:13.130Z,2.13
2022-10-04T06:39:20.193Z,2.33
2022-10-04T06:42:33.878Z,2.22
2022-10-04T06:45:38.924Z,1.85
2022-10-04T06:48:51.538Z,2.22
2022-10-04T06:51:56.649Z,2.67
2022-10-04T06:55:04.087Z,2.40
2022-10-04T06:58:17.357Z,2.20
2022-10-04T07:01:13.448Z,2.30
2022-10-04T07:04:14.799Z,4.28
2022-10-04T07:07:26.889Z,3.08
2022-10-04T07:10:32.175Z,2.60
2022-10-04T07:13:33.183Z,3.08
2022-10-04T07:16:33.202Z,2.80
2022-10-04T07:19:37.825Z,2.67
2022-10-04T07:22:32.049Z,2.60
2022-10-04T07:25:24.073Z,2.40
2022-10-04T07:28:34.229Z,2.30
2022-10-04T07:31:26.360Z,2.58
2022-10-04T07:34:20.015Z,2.20
2022-10-04T07:37:12.774Z,2.25
2022-10-04T07:40:04.398Z,2.20
2022-10-04T07:42:56.349Z,2.22
2022-10-04T07:45:43.586Z,2.13
2022-10-04T07:48:30.651Z,2.30
2022-10-04T07:51:26.811Z,2.38
2022-10-04T07:54:22.840Z,2.42
2022-10-04T07:57:17.363Z,2.45
2022-10-04T08:00:10.459Z,2.20
2022-10-04T08:03:20.041Z,2.75
2022-10-04T08:06:12.044Z,2.97
2022-10-04T08:09:16.687Z,2.70
2022-10-04T08:12:16.260Z,2.40
2022-10-04T08:15:30.849Z,2.83
2022-10-04T08:18:39.035Z,2.65
2022-10-04T08:21:36.738Z,3.00
2022-10-04T08:24:31.071Z,2.55
2022-10-04T08:28:11.928Z,2.60
2022-10-04T08:31:17.907Z,2.67
2022-10-04T08:34:24.369Z,3.42
2022-10-04T08:37:26.063Z,3.10
2022-10-04T08:40:45.526Z,3.10
2022-10-04T08:44:23.177Z,3.45
2022-10-04T08:47:54.483Z,3.10
2022-10-04T08:51:17.715Z,3.53
2022-10-04T08:54:59.286Z,2.75
2022-10-04T08:58:02.510Z,2.60
2022-10-04T09:01:18.274Z,3.38
2022-10-04T09:04:45.725Z,3.03
2022-10-04T09:08:08.899Z,2.10
2022-10-04T09:11:10.409Z,2.15
2022-10-04T09:14:31.720Z,2.03
2022-10-04T09:17:24.061Z,1.63
2022-10-04T09:20:38.438Z,2.55
2022-10-04T09:24:09.129Z,1.83
2022-10-04T09:27:04.367Z,1.55
2022-10-04T09:30:08.095Z,1.65
2022-10-04T09:33:25.902Z,1.80
2022-10-04T09:36:43.370Z,1.77
2022-10-04T09:40:03.835Z,2.25
2022-10-04T09:43:25.962Z,1.73
2022-10-04T09:46:31.767Z,1.60
2022-10-04T09:49:45.728Z,1.90
2022-10-04T09:52:46.906Z,1.73
2022-10-04T09:56:02.043Z,1.92
2022-10-04T09:59:22.887Z,1.70
2022-10-04T10:02:42.902Z,1.80
2022-10-04T10:05:50.678Z,1.70
2022-10-04T10:08:50.778Z,1.63
2022-10-04T10:12:06.765Z,1.70
2022-10-04T10:15:11.621Z,2.00
2022-10-04T10:18:09.995Z,1.75
2022-10-04T10:21:17.329Z,2.30
2022-10-04T10:24:17.162Z,1.63
2022-10-04T10:27:17.307Z,1.83
2022-10-04T10:30:16.645Z,1.73
2022-10-04T10:33:34.011Z,1.65
2022-10-04T10:37:00.471Z,1.90
2022-10-04T10:40:09.441Z,1.70
2022-10-04T10:43:25.983Z,2.08
2022-10-04T10:46:29.041Z,2.00
2022-10-04T10:49:44.271Z,1.73
2022-10-04T10:53:10.798Z,1.73
2022-10-04T10:56:35.096Z,1.80
2022-10-04T10:59:55.420Z,2.05
2022-10-04T11:03:23.130Z,2.20
2022-10-04T11:06:31.067Z,2.47
2022-10-04T11:09:35.037Z,1.90
2022-10-04T11:12:51.594Z,1.60
2022-10-04T11:15:56.510Z,1.70
2022-10-04T11:19:29.790Z,1.77
2022-10-04T11:22:50.927Z,2.00
2022-10-04T11:26:26.000Z,1.77
2022-10-04T11:29:28.590Z,2.00
2022-10-04T11:32:59.530Z,1.50
2022-10-04T11:36:34.846Z,1.77
2022-10-04T11:39:46.185Z,1.70
2022-10-04T11:42:54.591Z,1.67
2022-10-04T11:46:09.995Z,2.15
2022-10-04T11:49:11.690Z,1.90
2022-10-04T11:52:17.583Z,2.10
2022-10-04T11:55:57.301Z,1.80
2022-10-04T11:58:56.223Z,1.80
2022-10-04T12:02:32.250Z,1.67
2022-10-04T12:05:49.475Z,1.80
2022-10-04T12:08:59.468Z,1.85
2022-10-04T12:12:40.161Z,1.52
2022-10-04T12:15:45.271Z,1.60
2022-10-04T12:19:17.824Z,1.48
2022-10-04T12:22:30.220Z,1.42
2022-10-04T12:25:48.714Z,1.35
2022-10-04T12:29:04.438Z,1.10
2022-10-04T12:31:58.661Z,1.60
2022-10-04T12:34:54.101Z,1.23
2022-10-04T12:37:54.770Z,1.60
2022-10-04T12:40:49.774Z,1.38
2022-10-04T12:43:50.249Z,1.40
2022-10-04T12:46:51.782Z,1.48
2022-10-04T12:49:47.823Z,1.77
2022-10-04T12:52:46.823Z,1.73
2022-10-04T12:55:55.203Z,1.50
2022-10-04T12:58:53.785Z,1.40
2022-10-04T13:01:52.211Z,1.70
2022-10-04T13:04:43.218Z,1.35
2022-10-04T13:07:51.258Z,1.55
2022-10-04T13:10:54.877Z,1.50
2022-10-04T13:14:02.064Z,1.58
2022-10-04T13:20:23.797Z,1.42
2022-10-04T13:23:24.892Z,1.95
2022-10-04T13:26:37.907Z,1.23
2022-10-04T13:29:29.997Z,1.30
2022-10-04T13:32:24.094Z,1.55
2022-10-04T13:35:20.874Z,1.20
2022-10-04T13:38:38.002Z,1.30
2022-10-04T13:41:39.724Z,1.25
2022-10-04T13:44:44.966Z,1.30
2022-10-04T13:48:09.274Z,1.60
2022-10-04T13:51:10.338Z,1.48
2022-10-04T13:54:29.930Z,1.13
2022-10-04T13:57:25.451Z,2.58
2022-10-04T14:00:15.458Z,1.15
2022-10-04T14:03:13.489Z,1.50
2022-10-04T14:06:28.192Z,1.60
2022-10-04T14:09:41.341Z,1.00
2022-10-04T14:13:11.173Z,1.58
2022-10-04T14:16:24.397Z,0.70
2022-10-04T14:19:42.670Z,1.25
2022-10-04T14:23:09.116Z,1.35
2022-10-04T14:26:28.910Z,0.90
2022-10-04T14:29:50.306Z,0.90
2022-10-04T14:33:14.078Z,0.90
2022-10-04T14:36:27.843Z,1.20
2022-10-04T14:39:31.658Z,0.77
2022-10-04T14:43:03.731Z,1.30
2022-10-04T14:46:11.563Z,0.80
2022-10-04T14:49:11.112Z,1.23
2022-10-04T14:52:14.273Z,1.17
2022-10-04T14:55:17.236Z,0.85
2022-10-04T14:58:18.798Z,1.17
2022-10-04T15:01:23.091Z,1.60
2022-10-04T15:04:30.179Z,0.90
2022-10-04T15:07:21.060Z,1.17
2022-10-04T15:10:15.411Z,1.10
2022-10-04T15:13:11.020Z,1.10
2022-10-04T15:16:13.865Z,1.00
2022-10-04T15:19:09.264Z,1.08
2022-10-04T15:22:10.930Z,0.90
2022-10-04T15:24:59.511Z,1.33
2022-10-04T15:27:54.718Z,1.00
2022-10-04T15:30:54.946Z,0.93
2022-10-04T15:33:47.543Z,1.20
2022-10-04T15:37:02.666Z,1.20
2022-10-04T15:40:09.838Z,1.15
2022-10-04T15:43:14.220Z,2.30
2022-10-04T15:46:34.516Z,1.20
2022-10-04T15:49:31.108Z,1.25
2022-10-04T15:53:05.322Z,1.23
2022-10-04T15:56:12.638Z,1.42
2022-10-04T15:59:31.638Z,1.13
2022-10-04T16:02:48.621Z,1.77
2022-10-04T16:05:39.423Z,1.17
2022-10-04T16:08:42.110Z,1.50
2022-10-04T16:11:46.087Z,1.10
2022-10-04T16:15:14.339Z,1.45
2022-10-04T16:18:26.359Z,1.25
2022-10-04T16:21:26.593Z,1.50
2022-10-04T16:24:40.718Z,1.60
2022-10-04T16:28:05.585Z,1.60
2022-10-04T16:31:20.189Z,1.58
2022-10-04T16:34:31.695Z,3.17
2022-10-04T16:37:32.231Z,2.28
2022-10-04T16:40:34.402Z,2.15
2022-10-04T16:43:28.626Z,2.17
2022-10-04T16:46:25.104Z,2.05
2022-10-04T16:49:24.946Z,1.85
2022-10-04T16:52:48.379Z,1.80
2022-10-04T16:55:51.694Z,1.40
2022-10-04T16:58:53.430Z,1.40
2022-10-04T17:02:07.565Z,1.80
2022-10-04T17:05:08.219Z,1.40
2022-10-04T17:08:46.606Z,1.60
2022-10-04T17:11:43.895Z,1.58
2022-10-04T17:15:06.818Z,1.73
2022-10-04T17:18:01.667Z,1.60
2022-10-04T17:20:57.442Z,1.63
2022-10-04T17:23:57.942Z,1.70
2022-10-04T17:26:58.997Z,1.90
2022-10-04T17:30:02.006Z,1.83
2022-10-04T17:33:11.718Z,1.60
2022-10-04T17:36:09.634Z,1.60
2022-10-04T17:39:06.547Z,1.65
2022-10-04T17:42:10.254Z,1.23
2022-10-04T17:45:15.559Z,1.50
2022-10-04T17:48:23.847Z,1.63
2022-10-04T17:51:33.366Z,1.90
2022-10-04T17:54:42.915Z,1.88
2022-10-04T17:57:40.677Z,1.70
2022-10-04T18:00:47.314Z,2.08
2022-10-04T18:03:39.829Z,2.15
2022-10-04T18:06:33.447Z,2.20
2022-10-04T18:09:28.513Z,2.25
2022-10-04T18:12:27.158Z,2.22
2022-10-04T18:15:21.908Z,1.60
2022-10-04T18:18:18.777Z,2.10
2022-10-04T18:21:18.753Z,2.28
2022-10-04T18:24:20.480Z,2.13
2022-10-04T18:27:19.387Z,2.00
2022-10-04T18:30:15.541Z,1.95
2022-10-04T18:33:05.236Z,2.28
2022-10-04T18:36:00.810Z,2.30
2022-10-04T18:39:03.406Z,2.22
2022-10-04T18:42:04.141Z,2.17
2022-10-04T18:44:59.270Z,2.10
2022-10-04T18:47:46.495Z,2.53
2022-10-04T18:50:37.858Z,2.00
2022-10-04T18:53:43.600Z,2.60
2022-10-04T18:56:34.315Z,2.00
2022-10-04T18:59:50.586Z,2.20
2022-10-04T19:02:44.469Z,2.27
2022-10-04T19:05:40.515Z,2.70
2022-10-04T19:08:39.730Z,2.38
2022-10-04T19:11:33.786Z,2.05
2022-10-04T19:14:30.718Z,2.55
2022-10-04T19:17:26.546Z,2.03
2022-10-04T19:20:23.158Z,2.38
2022-10-04T19:23:25.749Z,2.40
2022-10-04T19:26:32.447Z,2.10
2022-10-04T19:29:32.650Z,2.70
2022-10-04T19:32:30.112Z,3.00
2022-10-04T19:35:26.674Z,3.28
2022-10-04T19:38:29.388Z,3.08
2022-10-04T19:41:27.006Z,3.05
2022-10-04T19:44:23.720Z,2.90
2022-10-04T19:47:23.089Z,2.80
2022-10-04T19:50:21.134Z,3.22
2022-10-04T19:53:14.938Z,3.00
2022-10-04T19:56:05.902Z,2.60
2022-10-04T19:59:01.430Z,2.83
2022-10-04T20:01:51.172Z,3.13
2022-10-04T20:04:43.552Z,2.90
2022-10-04T20:07:30.726Z,2.70
2022-10-04T20:10:30.940Z,2.88
2022-10-04T20:13:23.457Z,2.90
2022-10-04T20:16:11.807Z,3.00
2022-10-04T20:19:00.666Z,2.80
2022-10-04T20:21:47.643Z,3.40
2022-10-04T20:24:51.283Z,2.97
2022-10-04T20:28:02.034Z,3.30
2022-10-04T20:30:52.307Z,2.58
2022-10-04T20:33:49.325Z,3.00
2022-10-04T20:36:52.909Z,3.17
2022-10-04T20:40:00.993Z,3.37
2022-10-04T20:43:26.418Z,2.97
2022-10-04T20:46:23.588Z,2.90
2022-10-04T20:49:18.677Z,3.17
2022-10-04T20:52:05.706Z,3.03
2022-10-04T20:54:53.830Z,2.90
2022-10-04T20:57:40.918Z,2.87
2022-10-04T21:00:33.735Z,3.37
2022-10-04T21:03:21.635Z,3.20
2022-10-04T21:06:12.322Z,3.03
2022-10-04T21:08:59.427Z,2.67
2022-10-04T21:11:47.854Z,3.10
2022-10-04T21:14:36.264Z,2.93
2022-10-04T21:17:41.365Z,3.10
2022-10-04T21:20:48.109Z,3.33
2022-10-04T21:23:36.737Z,2.90
2022-10-04T21:26:24.975Z,2.90
2022-10-04T21:29:12.013Z,3.00
2022-10-04T21:32:00.039Z,2.53
2022-10-04T21:34:54.872Z,2.43
2022-10-04T21:37:42.051Z,2.80
2022-10-04T21:40:30.534Z,3.17
2022-10-04T21:43:17.801Z,2.87
2022-10-04T21:46:05.598Z,2.90
2022-10-04T21:48:52.626Z,2.40
2022-10-04T21:51:40.298Z,2.70
2022-10-04T21:54:27.541Z,2.40
2022-10-04T21:57:16.151Z,2.70
2022-10-04T22:00:03.306Z,2.47
2022-10-04T22:02:59.097Z,2.70
2022-10-04T22:05:46.386Z,2.80
2022-10-04T22:08:33.600Z,2.90
2022-10-04T22:11:20.885Z,2.40
2022-10-04T22:14:09.476Z,2.90
2022-10-04T22:16:56.405Z,2.35
2022-10-04T22:19:43.583Z,2.90
2022-10-04T22:22:34.261Z,2.20
2022-10-04T22:25:26.670Z,2.20
2022-10-04T22:28:22.127Z,2.57
2022-10-04T22:31:14.181Z,1.93
2022-10-04T22:34:01.203Z,2.30
2022-10-04T22:36:50.204Z,2.10
2022-10-04T22:39:37.148Z,2.13
2022-10-04T22:42:29.325Z,2.70
2022-10-04T22:45:21.504Z,2.40
2022-10-04T22:48:15.118Z,2.60
2022-10-04T22:51:02.029Z,2.33
2022-10-04T22:53:49.385Z,1.97
2022-10-04T22:56:36.358Z,2.40
2022-10-04T22:59:27.963Z,2.23
2022-10-04T23:02:16.731Z,2.53
2022-10-04T23:05:14.234Z,2.30
2022-10-04T23:08:00.958Z,2.60
2022-10-04T23:10:48.463Z,2.50
2022-10-04T23:13:35.609Z,2.53
2022-10-04T23:16:24.072Z,2.43
2022-10-04T23:19:13.385Z,2.03
2022-10-04T23:22:01.706Z,2.60
2022-10-04T23:24:48.793Z,2.20
2022-10-04T23:27:35.869Z,2.40
2022-10-04T23:30:23.617Z,2.60
2022-10-04T23:33:16.925Z,2.80
2022-10-04T23:36:03.957Z,2.83
2022-10-04T23:38:57.482Z,2.53
2022-10-04T23:41:45.534Z,2.50
2022-10-04T23:44:37.046Z,2.60
2022-10-04T23:47:26.275Z,2.20
2022-10-04T23:50:21.882Z,2.40
2022-10-04T23:53:18.040Z,1.90
2022-10-04T23:56:13.153Z,3.07
2022-10-04T23:59:00.433Z,2.73
